Time,TemperatureF,DewpointF,PressureIn,WindDirection,WindDirectionDegrees,WindSpeedMPH,WindSpeedGustMPH,Humidity,HourlyPrecipIn,Conditions,Clouds,dailyrainin,SoftwareType,DateUTC
2013-08-27 00:05:00,79.0,76.0,-100.00,SSW,195,2.0,4.0,92,-99.99,,,-99.99,,2013-08-27 05:05:00,
2013-08-27 00:43:00,77.0,76.0,-100.00,SSE,155,1.0,3.0,94,-99.99,,,-99.99,,2013-08-27 05:43:00,
2013-08-27 00:52:00,77.0,76.0,-100.00,SSE,155,1.0,3.0,94,-99.99,,,-99.99,,2013-08-27 05:52:00,
2013-08-27 01:02:00,77.0,76.0,-100.00,SSE,155,1.0,3.0,94,-99.99,,,-99.99,,2013-08-27 06:02:00,
2013-08-27 01:12:00,78.0,76.0,-100.00,ENE,60,3.0,6.0,94,-99.99,,,-99.99,,2013-08-27 06:12:00,
2013-08-27 01:42:00,78.0,76.0,-100.00,ENE,60,3.0,6.0,94,-99.99,,,-99.99,,2013-08-27 06:42:00,
2013-08-27 01:52:00,78.0,76.0,-100.00,ENE,60,3.0,6.0,94,-99.99,,,-99.99,,2013-08-27 06:52:00,
2013-08-27 02:02:00,78.0,76.0,-100.00,ENE,60,3.0,6.0,94,-99.99,,,-99.99,,2013-08-27 07:02:00,
2013-08-27 02:10:00,76.0,74.0,-100.00,South,185,0.0,0.0,95,-99.99,,,-99.99,,2013-08-27 07:10:00,
2013-08-27 02:42:00,76.0,74.0,-100.00,South,185,0.0,0.0,95,-99.99,,,-99.99,,2013-08-27 07:42:00,
2013-08-27 02:52:00,76.0,74.0,-100.00,South,185,0.0,0.0,95,-99.99,,,-99.99,,2013-08-27 07:52:00,
2013-08-27 03:02:00,76.0,74.0,-100.00,South,185,0.0,0.0,95,-99.99,,,-99.99,,2013-08-27 08:02:00,
2013-08-27 03:42:00,74.0,73.0,-100.00,ENE,65,0.0,2.0,96,-99.99,,,-99.99,,2013-08-27 08:42:00,
2013-08-27 03:52:00,74.0,73.0,-100.00,ENE,65,0.0,2.0,96,-99.99,,,-99.99,,2013-08-27 08:52:00,
2013-08-27 04:01:00,74.0,73.0,-100.00,ENE,65,0.0,2.0,96,-99.99,,,-99.99,,2013-08-27 09:01:00,
2013-08-27 04:43:00,73.0,72.0,-100.00,SE,135,1.0,2.0,96,-99.99,,,-99.99,,2013-08-27 09:43:00,
2013-08-27 04:54:00,73.0,72.0,-100.00,SE,135,1.0,2.0,96,-99.99,,,-99.99,,2013-08-27 09:54:00,
2013-08-27 05:05:00,73.0,72.0,-100.00,SE,135,1.0,2.0,96,-99.99,,,-99.99,,2013-08-27 10:05:00,
2013-08-27 05:43:00,72.0,71.0,-100.00,ESE,105,1.0,4.0,96,-99.99,,,-99.99,,2013-08-27 10:43:00,
2013-08-27 05:53:00,72.0,71.0,-100.00,ESE,105,1.0,4.0,96,-99.99,,,-99.99,,2013-08-27 10:53:00,
2013-08-27 06:03:00,72.0,71.0,-100.00,ESE,105,1.0,4.0,96,-99.99,,,-99.99,,2013-08-27 11:03:00,
2013-08-27 06:10:00,72.0,71.0,-100.00,SSE,150,1.0,2.0,96,-99.99,,,-99.99,,2013-08-27 11:10:00,
2013-08-27 06:42:00,72.0,71.0,-100.00,SSE,150,1.0,2.0,96,-99.99,,,-99.99,,2013-08-27 11:42:00,
2013-08-27 06:52:00,72.0,71.0,-100.00,SSE,150,1.0,2.0,96,-99.99,,,-99.99,,2013-08-27 11:52:00,
2013-08-27 07:02:00,72.0,71.0,-100.00,SSE,150,1.0,2.0,96,-99.99,,,-99.99,,2013-08-27 12:02:00,
2013-08-27 07:42:00,73.0,72.0,-100.00,SE,145,2.0,4.0,96,-99.99,,,-99.99,,2013-08-27 12:42:00,
2013-08-27 07:52:00,73.0,72.0,-100.00,SE,145,2.0,4.0,96,-99.99,,,-99.99,,2013-08-27 12:52:00,
2013-08-27 08:01:00,73.0,72.0,-100.00,SE,145,2.0,4.0,96,-99.99,,,-99.99,,2013-08-27 13:01:00,
2013-08-27 08:42:00,75.0,74.0,-100.00,SSE,160,3.0,5.0,96,-99.99,,,-99.99,,2013-08-27 13:42:00,
2013-08-27 08:52:00,75.0,74.0,-100.00,SSE,160,3.0,5.0,96,-99.99,,,-99.99,,2013-08-27 13:52:00,
2013-08-27 09:02:00,75.0,74.0,-100.00,SSE,160,3.0,5.0,96,-99.99,,,-99.99,,2013-08-27 14:02:00,
2013-08-27 09:10:00,81.0,72.0,-100.00,South,180,6.0,10.0,74,-99.99,,,-99.99,,2013-08-27 14:10:00,
2013-08-27 09:42:00,81.0,72.0,-100.00,South,180,6.0,10.0,74,-99.99,,,-99.99,,2013-08-27 14:42:00,
2013-08-27 09:53:00,81.0,72.0,-100.00,South,180,6.0,10.0,74,-99.99,,,-99.99,,2013-08-27 14:53:00,
2013-08-27 10:01:00,81.0,72.0,-100.00,South,180,6.0,10.0,74,-99.99,,,-99.99,,2013-08-27 15:01:00,
2013-08-27 10:10:00,84.0,68.0,-100.00,SW,230,7.0,13.0,58,-99.99,,,-99.99,,2013-08-27 15:10:00,
2013-08-27 10:45:00,84.0,68.0,-100.00,SW,230,7.0,13.0,58,-99.99,,,-99.99,,2013-08-27 15:45:00,
2013-08-27 10:58:00,84.0,68.0,-100.00,SW,230,7.0,13.0,58,-99.99,,,-99.99,,2013-08-27 15:58:00,
2013-08-27 11:09:00,84.0,68.0,-100.00,SW,230,7.0,13.0,58,-99.99,,,-99.99,,2013-08-27 16:09:00,
2013-08-27 11:11:00,88.0,68.0,-100.00,SW,235,7.0,13.0,52,-99.99,,,-99.99,,2013-08-27 16:11:00,
2013-08-27 11:46:00,88.0,68.0,-100.00,SW,235,7.0,13.0,52,-99.99,,,-99.99,,2013-08-27 16:46:00,
2013-08-27 11:55:00,88.0,68.0,-100.00,SW,235,7.0,13.0,52,-99.99,,,-99.99,,2013-08-27 16:55:00,
2013-08-27 12:04:00,88.0,68.0,-100.00,SW,235,7.0,13.0,52,-99.99,,,-99.99,,2013-08-27 17:04:00,
2013-08-27 12:11:00,90.0,67.0,-100.00,West,260,6.0,12.0,48,-99.99,,,-99.99,,2013-08-27 17:11:00,
2013-08-27 12:43:00,90.0,67.0,-100.00,West,260,6.0,12.0,48,-99.99,,,-99.99,,2013-08-27 17:43:00,
2013-08-27 12:52:00,90.0,67.0,-100.00,West,260,6.0,12.0,48,-99.99,,,-99.99,,2013-08-27 17:52:00,
2013-08-27 13:02:00,90.0,67.0,-100.00,West,260,6.0,12.0,48,-99.99,,,-99.99,,2013-08-27 18:02:00,
2013-08-27 13:10:00,92.0,67.0,-100.00,SSW,210,4.0,11.0,43,-99.99,,,-99.99,,2013-08-27 18:10:00,
2013-08-27 13:42:00,92.0,67.0,-100.00,SSW,210,4.0,11.0,43,-99.99,,,-99.99,,2013-08-27 18:42:00,
2013-08-27 13:53:00,92.0,67.0,-100.00,SSW,210,4.0,11.0,43,-99.99,,,-99.99,,2013-08-27 18:53:00,
2013-08-27 14:01:00,92.0,67.0,-100.00,SSW,210,4.0,11.0,43,-99.99,,,-99.99,,2013-08-27 19:01:00,
2013-08-27 14:10:00,94.0,67.0,-100.00,West,275,5.0,13.0,41,-99.99,,,-99.99,,2013-08-27 19:10:00,
2013-08-27 14:42:00,94.0,67.0,-100.00,West,275,5.0,13.0,41,-99.99,,,-99.99,,2013-08-27 19:42:00,
2013-08-27 14:52:00,94.0,67.0,-100.00,West,275,5.0,13.0,41,-99.99,,,-99.99,,2013-08-27 19:52:00,
2013-08-27 15:02:00,94.0,67.0,-100.00,West,275,5.0,13.0,41,-99.99,,,-99.99,,2013-08-27 20:02:00,